createdAt,value
2023-05-24T00:00:35.015Z,13.16
2023-05-24T00:04:37.682Z,13.10
2023-05-24T00:08:40.365Z,13.09
2023-05-24T00:12:43.036Z,13.04
2023-05-24T00:16:47.412Z,13.11
2023-05-24T00:20:51.858Z,13.10
2023-05-24T00:24:54.597Z,13.05
2023-05-24T00:28:57.233Z,12.99
2023-05-24T00:33:01.374Z,12.94
2023-05-24T00:37:04.096Z,12.92
2023-05-24T00:41:06.809Z,12.90
2023-05-24T00:45:10.580Z,12.81
2023-05-24T00:49:14.679Z,12.71
2023-05-24T00:53:17.387Z,12.68
2023-05-24T00:57:20.259Z,12.66
2023-05-24T01:01:25.867Z,12.53
2023-05-24T01:05:29.934Z,12.27
2023-05-24T01:09:44.145Z,12.04
2023-05-24T01:13:55.762Z,11.90
2023-05-24T01:18:05.306Z,11.63
2023-05-24T01:22:23.857Z,11.45
2023-05-24T01:26:32.983Z,11.38
2023-05-24T01:30:37.902Z,11.31
2023-05-24T01:34:40.550Z,11.26
2023-05-24T01:38:43.536Z,11.26
2023-05-24T01:42:50.021Z,11.22
2023-05-24T01:47:06.060Z,11.22
2023-05-24T01:51:11.799Z,11.23
2023-05-24T01:55:18.604Z,11.25
2023-05-24T01:59:22.966Z,11.23
2023-05-24T02:03:27.067Z,11.23
2023-05-24T02:07:29.696Z,11.17
2023-05-24T02:11:32.336Z,11.11
2023-05-24T02:15:35.587Z,11.05
2023-05-24T02:19:39.640Z,11.09
2023-05-24T02:23:42.396Z,11.11
2023-05-24T02:27:47.095Z,11.15
2023-05-24T02:31:52.026Z,11.14
2023-05-24T02:35:56.053Z,11.04
2023-05-24T02:39:58.805Z,10.98
2023-05-24T02:44:01.482Z,10.94
2023-05-24T02:48:04.403Z,10.90
2023-05-24T02:52:08.641Z,10.87
2023-05-24T02:56:11.442Z,10.88
2023-05-24T03:00:15.207Z,10.88
2023-05-24T03:04:17.905Z,10.83
2023-05-24T03:08:21.933Z,10.83
2023-05-24T03:12:24.596Z,10.80
2023-05-24T03:16:27.266Z,10.84
2023-05-24T03:20:29.923Z,10.78
2023-05-24T03:24:34.788Z,10.72
2023-05-24T03:28:37.549Z,10.66
2023-05-24T03:32:40.395Z,10.55
2023-05-24T03:36:43.330Z,10.47
2023-05-24T03:40:47.410Z,10.55
2023-05-24T03:44:50.113Z,10.94
2023-05-24T03:48:52.939Z,11.28
2023-05-24T03:52:55.932Z,11.16
2023-05-24T03:57:00.078Z,11.25
2023-05-24T04:01:03.441Z,11.31
2023-05-24T04:05:10.270Z,11.18
2023-05-24T04:09:12.936Z,10.96
2023-05-24T04:13:17.046Z,10.77
2023-05-24T04:17:19.861Z,10.67
2023-05-24T04:21:22.687Z,10.59
2023-05-24T04:25:26.834Z,10.54
2023-05-24T04:29:34.391Z,10.53
2023-05-24T04:33:37.092Z,10.53
2023-05-24T04:37:40.429Z,10.54
2023-05-24T04:41:43.157Z,10.61
2023-05-24T04:45:47.514Z,10.72
2023-05-24T04:49:50.965Z,10.78
2023-05-24T04:53:53.659Z,10.87
2023-05-24T04:57:57.200Z,10.97
2023-05-24T05:02:01.370Z,11.02
2023-05-24T05:06:04.347Z,11.05
2023-05-24T05:10:08.545Z,10.88
2023-05-24T05:14:11.688Z,10.79
2023-05-24T05:18:16.484Z,10.76
2023-05-24T05:22:19.350Z,10.77
2023-05-24T05:26:22.353Z,10.83
2023-05-24T05:30:24.977Z,10.91
2023-05-24T05:34:29.348Z,10.98
2023-05-24T05:38:31.974Z,11.15
2023-05-24T05:42:34.620Z,11.24
2023-05-24T05:46:37.437Z,11.31
2023-05-24T05:50:42.564Z,11.45
2023-05-24T05:54:46.368Z,11.48
2023-05-24T05:58:49.380Z,11.46
2023-05-24T06:02:52.155Z,11.43
2023-05-24T06:06:56.996Z,11.43
2023-05-24T06:10:59.863Z,11.43
2023-05-24T06:15:02.528Z,11.43
2023-05-24T06:19:06.618Z,11.48
2023-05-24T06:23:10.953Z,11.61
2023-05-24T06:27:13.775Z,11.68
2023-05-24T06:31:16.517Z,11.72
2023-05-24T06:35:19.250Z,11.77
2023-05-24T06:39:25.218Z,11.88
2023-05-24T06:43:28.298Z,12.00
2023-05-24T06:47:31.085Z,11.96
2023-05-24T06:51:34.549Z,11.95
2023-05-24T06:55:38.830Z,11.83
2023-05-24T06:59:41.486Z,11.84
2023-05-24T07:03:44.209Z,11.78
2023-05-24T07:07:47.011Z,11.80
2023-05-24T07:11:51.195Z,11.90
2023-05-24T07:15:53.917Z,11.93
2023-05-24T07:19:56.903Z,11.95
2023-05-24T07:24:00.289Z,12.03
2023-05-24T07:28:05.269Z,12.09
2023-05-24T07:32:08.734Z,12.12
2023-05-24T07:36:12.277Z,12.19
2023-05-24T07:40:15.106Z,12.15
2023-05-24T07:44:19.977Z,12.37
2023-05-24T07:48:22.759Z,12.38
2023-05-24T07:52:26.281Z,12.50
2023-05-24T07:56:29.225Z,12.58
2023-05-24T08:00:33.798Z,12.65
2023-05-24T08:04:36.650Z,12.64
2023-05-24T08:08:40.250Z,12.62
2023-05-24T08:12:43.306Z,12.76
2023-05-24T08:16:47.361Z,12.93
2023-05-24T08:20:50.166Z,12.74
2023-05-24T08:24:53.274Z,12.61
2023-05-24T08:28:56.054Z,12.74
2023-05-24T08:33:00.074Z,12.70
2023-05-24T08:37:03.232Z,12.59
2023-05-24T08:41:08.095Z,12.50
2023-05-24T08:45:13.912Z,12.62
2023-05-24T08:49:19.096Z,12.79
2023-05-24T08:53:24.249Z,13.05
2023-05-24T08:57:28.832Z,13.02
2023-05-24T09:01:33.893Z,12.93
2023-05-24T09:05:39.202Z,12.84
2023-05-24T09:09:45.278Z,13.08
2023-05-24T09:13:49.133Z,13.25
2023-05-24T09:17:51.833Z,13.32
2023-05-24T09:21:57.469Z,13.49
2023-05-24T09:26:07.735Z,13.68
2023-05-24T09:30:12.716Z,13.84
2023-05-24T09:34:16.962Z,14.17
2023-05-24T09:38:21.076Z,14.17
2023-05-24T09:42:26.595Z,13.82
2023-05-24T09:46:29.892Z,13.82
2023-05-24T09:50:33.017Z,13.77
2023-05-24T09:54:37.543Z,13.85
2023-05-24T09:58:43.214Z,13.68
2023-05-24T10:02:53.416Z,13.62
2023-05-24T10:06:56.969Z,13.38
2023-05-24T10:11:03.508Z,13.13
2023-05-24T10:15:08.201Z,13.15
2023-05-24T10:19:11.826Z,13.37
2023-05-24T10:23:20.823Z,13.55
2023-05-24T10:27:28.771Z,13.55
2023-05-24T10:31:34.585Z,13.72
2023-05-24T10:35:38.432Z,13.61
2023-05-24T10:39:42.821Z,13.71
2023-05-24T10:44:00.693Z,14.18
2023-05-24T10:48:38.225Z,14.34
2023-05-24T10:52:41.707Z,14.27
2023-05-24T10:56:48.847Z,14.47
2023-05-24T11:00:53.851Z,15.03
2023-05-24T11:04:56.832Z,15.12
2023-05-24T11:09:01.989Z,14.98
2023-05-24T11:13:04.956Z,14.61
2023-05-24T11:17:09.544Z,14.66
2023-05-24T11:21:12.634Z,14.75
2023-05-24T11:25:15.376Z,15.01
2023-05-24T11:29:20.908Z,15.57
2023-05-24T11:33:25.519Z,15.46
2023-05-24T11:37:45.052Z,14.92
2023-05-24T11:41:48.961Z,15.34
2023-05-24T11:45:53.017Z,15.39
2023-05-24T11:49:57.131Z,15.28
2023-05-24T11:54:00.354Z,15.18
2023-05-24T11:58:06.211Z,15.10
2023-05-24T12:02:09.184Z,15.04
2023-05-24T12:06:13.285Z,15.22
2023-05-24T12:10:16.380Z,15.43
2023-05-24T12:14:20.727Z,15.61
2023-05-24T12:18:24.830Z,15.84
2023-05-24T12:22:31.921Z,15.57
2023-05-24T12:26:35.952Z,15.11
2023-05-24T12:30:43.562Z,15.31
2023-05-24T12:34:46.430Z,15.53
2023-05-24T12:38:50.653Z,15.65
2023-05-24T12:42:55.173Z,15.90
2023-05-24T12:46:59.088Z,15.94
2023-05-24T12:51:02.152Z,15.94
2023-05-24T12:55:07.950Z,16.00
2023-05-24T12:59:10.602Z,15.92
2023-05-24T13:03:13.335Z,16.68
2023-05-24T13:07:16.101Z,17.13
2023-05-24T13:11:20.145Z,17.30
2023-05-24T13:15:24.041Z,17.82
2023-05-24T13:19:26.792Z,17.79
2023-05-24T13:23:29.848Z,18.17
2023-05-24T13:27:33.967Z,18.43
2023-05-24T13:31:37.722Z,17.81
2023-05-24T13:35:42.058Z,17.95
2023-05-24T13:39:45.008Z,17.53
2023-05-24T13:43:50.618Z,17.64
2023-05-24T13:47:53.688Z,17.73
2023-05-24T13:51:58.512Z,17.67
2023-05-24T13:56:02.761Z,17.70
2023-05-24T14:00:09.306Z,17.79
2023-05-24T14:04:12.514Z,17.81
2023-05-24T14:08:15.206Z,17.89
2023-05-24T14:12:17.868Z,18.47
2023-05-24T14:16:22.028Z,18.20
2023-05-24T14:20:24.854Z,18.16
2023-05-24T14:24:27.661Z,18.47
2023-05-24T14:28:30.318Z,18.66
2023-05-24T14:32:34.327Z,18.16
2023-05-24T14:36:37.577Z,17.73
2023-05-24T14:40:40.867Z,17.35
2023-05-24T14:44:43.699Z,17.67
2023-05-24T14:48:47.774Z,17.86
2023-05-24T14:52:50.878Z,17.68
2023-05-24T14:56:54.333Z,17.62
2023-05-24T15:00:57.071Z,18.02
2023-05-24T15:05:01.179Z,17.31
2023-05-24T15:09:04.277Z,17.34
2023-05-24T15:13:07.156Z,17.44
2023-05-24T15:17:10.831Z,17.71
2023-05-24T15:21:14.808Z,17.53
2023-05-24T15:25:17.822Z,17.55
2023-05-24T15:29:21.531Z,18.00
2023-05-24T15:33:24.285Z,18.21
2023-05-24T15:37:28.567Z,18.24
2023-05-24T15:41:31.237Z,18.45
2023-05-24T15:45:33.895Z,18.61
2023-05-24T15:49:36.579Z,18.52
2023-05-24T15:53:40.777Z,18.48
2023-05-24T15:57:43.500Z,18.63
2023-05-24T16:01:46.135Z,18.58
2023-05-24T16:05:49.493Z,18.30
2023-05-24T16:09:54.125Z,18.43
2023-05-24T16:13:57.342Z,18.10
2023-05-24T16:17:59.988Z,18.04
2023-05-24T16:22:03.063Z,17.95
2023-05-24T16:26:07.155Z,17.91
2023-05-24T16:30:10.551Z,17.92
2023-05-24T16:34:13.201Z,18.11
2023-05-24T16:38:15.964Z,17.71
2023-05-24T16:42:19.954Z,17.69
2023-05-24T16:46:23.953Z,17.84
2023-05-24T16:50:27.066Z,17.86
2023-05-24T16:54:29.772Z,17.51
2023-05-24T16:58:33.797Z,17.62
2023-05-24T17:02:36.524Z,17.55
2023-05-24T17:06:39.293Z,17.37
2023-05-24T17:10:43.596Z,17.35
2023-05-24T17:14:47.771Z,17.05
2023-05-24T17:18:51.062Z,16.84
2023-05-24T17:22:55.705Z,16.60
2023-05-24T17:26:58.350Z,16.55
2023-05-24T17:31:04.202Z,16.73
2023-05-24T17:35:07.149Z,16.79
2023-05-24T17:39:09.892Z,16.82
2023-05-24T17:43:12.916Z,16.62
2023-05-24T17:47:16.941Z,16.32
2023-05-24T17:51:20.032Z,16.05
2023-05-24T17:55:23.102Z,15.85
2023-05-24T17:59:25.775Z,15.51
2023-05-24T18:03:29.747Z,14.95
2023-05-24T18:07:32.412Z,14.86
2023-05-24T18:11:35.175Z,14.67
2023-05-24T18:15:37.891Z,14.53
2023-05-24T18:19:42.006Z,14.34
2023-05-24T18:23:44.669Z,14.24
2023-05-24T18:27:47.650Z,14.14
2023-05-24T18:31:50.406Z,14.08
2023-05-24T18:35:54.501Z,14.03
2023-05-24T18:39:58.780Z,14.01
2023-05-24T18:44:01.411Z,14.00
2023-05-24T18:48:04.247Z,13.92
2023-05-24T18:52:08.307Z,13.77
2023-05-24T18:56:11.057Z,13.61
2023-05-24T19:00:14.605Z,13.58
2023-05-24T19:04:17.266Z,13.46
2023-05-24T19:08:21.460Z,13.41
2023-05-24T19:12:24.269Z,13.30
2023-05-24T19:16:26.957Z,13.22
2023-05-24T19:20:29.720Z,13.10
2023-05-24T19:24:34.004Z,12.96
2023-05-24T19:28:40.176Z,12.84
2023-05-24T19:32:43.145Z,12.81
2023-05-24T19:36:46.117Z,12.77
2023-05-24T19:40:50.199Z,12.75
2023-05-24T19:44:53.205Z,12.62
2023-05-24T19:48:56.098Z,12.52
2023-05-24T19:52:58.775Z,12.45
2023-05-24T19:57:03.100Z,12.41
2023-05-24T20:01:06.336Z,12.34
2023-05-24T20:05:10.013Z,12.25
2023-05-24T20:09:12.796Z,12.20
2023-05-24T20:13:16.810Z,12.03
2023-05-24T20:17:19.487Z,11.79
2023-05-24T20:21:22.161Z,11.63
2023-05-24T20:25:25.297Z,11.53
2023-05-24T20:29:29.322Z,11.51
2023-05-24T20:33:33.491Z,11.51
2023-05-24T20:37:36.298Z,11.52
2023-05-24T20:41:38.967Z,11.38
2023-05-24T20:45:43.296Z,11.33
2023-05-24T20:49:46.248Z,11.32
2023-05-24T20:53:51.686Z,11.25
2023-05-24T20:57:54.343Z,11.23
2023-05-24T21:01:58.322Z,11.19
2023-05-24T21:06:01.020Z,11.12
2023-05-24T21:10:04.006Z,11.07
2023-05-24T21:14:06.629Z,11.04
2023-05-24T21:18:10.635Z,11.00
2023-05-24T21:22:13.252Z,10.92
2023-05-24T21:26:15.923Z,10.88
2023-05-24T21:30:18.546Z,10.84
2023-05-24T21:34:22.484Z,10.78
2023-05-24T21:38:25.285Z,10.78
2023-05-24T21:42:27.956Z,10.78
2023-05-24T21:46:33.997Z,10.72
2023-05-24T21:50:37.950Z,10.73
2023-05-24T21:54:40.589Z,10.68
2023-05-24T21:58:43.276Z,10.64
2023-05-24T22:02:45.938Z,10.66
2023-05-24T22:06:50.043Z,10.61
2023-05-24T22:10:52.711Z,10.60
2023-05-24T22:14:55.472Z,10.62
2023-05-24T22:19:01.112Z,10.63
2023-05-24T22:23:05.406Z,10.65
2023-05-24T22:27:13.812Z,10.64
2023-05-24T22:31:16.693Z,10.69
2023-05-24T22:35:20.376Z,10.68
2023-05-24T22:39:24.516Z,10.72
2023-05-24T22:43:27.805Z,10.70
2023-05-24T22:47:33.433Z,10.63
2023-05-24T22:51:37.688Z,10.57
2023-05-24T22:55:41.700Z,10.52
2023-05-24T22:59:45.920Z,10.52
2023-05-24T23:03:48.528Z,10.51
2023-05-24T23:07:51.892Z,10.54
2023-05-24T23:11:58.098Z,10.55
2023-05-24T23:16:00.871Z,10.57
2023-05-24T23:20:03.968Z,10.57
2023-05-24T23:24:09.562Z,10.61
2023-05-24T23:28:13.544Z,10.66
2023-05-24T23:32:16.194Z,10.64
2023-05-24T23:36:18.860Z,10.67
2023-05-24T23:40:21.614Z,10.67
2023-05-24T23:44:25.912Z,10.65
2023-05-24T23:48:28.895Z,10.63
2023-05-24T23:52:31.511Z,10.60
2023-05-24T23:56:34.210Z,10.62
